<?xml version="1.0" encoding="UTF-8" standalone="yes"?>
<gpx
 xmlns="http://www.topografix.com/GPX/1/1"
 version="1.1"
 xmlns:xsi="http://www.w3.org/2001/XMLSchema-instance"
 xsi:schemaLocation="http://www.topografix.com/GPX/1/1 http://www.topografix.com/GPX/1/1/gpx.xsd">
<metadata>
 <time>2009-05-01T10:00:00.000Z</time>
 <bounds minlat="48.430283" minlon="13.071743" maxlat="48.436515" maxlon="13.095285"/>
</metadata>
<trk>
 <desc>Bad Birnbach - Mittlerer Rottauenweg</desc>
<trkseg>
<trkpt lat="48.4362920" lon="13.0728990">
<ele>350.000000</ele>
<time>2009-05-01T10:00:00.000Z</time>
</trkpt>
<trkpt lat="48.4363050" lon="13.0727760">
<ele>350.000000</ele>
<time>2009-05-01T10:00:08.030Z</time>
</trkpt>
<trkpt lat="48.4362660" lon="13.0726900">
<ele>350.000000</ele>
<time>2009-05-01T10:00:15.020Z</time>
</trkpt>
<trkpt lat="48.4359740" lon="13.0722980">
<ele>350.000000</ele>
<time>2009-05-01T10:00:54.030Z</time>
</trkpt>
<trkpt lat="48.4357780" lon="13.0721160">
<ele>350.000000</ele>
<time>2009-05-01T10:01:17.040Z</time>
</trkpt>
<trkpt lat="48.4355360" lon="13.0719390">
<ele>350.000000</ele>
<time>2009-05-01T10:01:44.040Z</time>
</trkpt>
<trkpt lat="48.4353640" lon="13.0718340">
<ele>350.000000</ele>
<time>2009-05-01T10:02:03.000Z</time>
</trkpt>
<trkpt lat="48.4351930" lon="13.0717540">
<ele>350.000000</ele>
<time>2009-05-01T10:02:20.090Z</time>
</trkpt>
<trkpt lat="48.4351340" lon="13.0717430">
<ele>350.000000</ele>
<time>2009-05-01T10:02:26.080Z</time>
</trkpt>
<trkpt lat="48.4351140" lon="13.0717780">
<ele>350.000000</ele>
<time>2009-05-01T10:02:29.080Z</time>
</trkpt>
<trkpt lat="48.4351490" lon="13.0720430">
<ele>350.000000</ele>
<time>2009-05-01T10:02:47.070Z</time>
</trkpt>
<trkpt lat="48.4351750" lon="13.0722670">
<ele>349.000031</ele>
<time>2009-05-01T10:03:02.080Z</time>
</trkpt>
<trkpt lat="48.4352010" lon="13.0725130">
<ele>349.000031</ele>
<time>2009-05-01T10:03:19.030Z</time>
</trkpt>
<trkpt lat="48.4352180" lon="13.0728150">
<ele>350.000000</ele>
<time>2009-05-01T10:03:39.050Z</time>
</trkpt>
<trkpt lat="48.4352340" lon="13.0731030">
<ele>350.000000</ele>
<time>2009-05-01T10:03:58.070Z</time>
</trkpt>
<trkpt lat="48.4352350" lon="13.0733990">
<ele>350.000000</ele>
<time>2009-05-01T10:04:18.040Z</time>
</trkpt>
<trkpt lat="48.4352310" lon="13.0737310">
<ele>350.000000</ele>
<time>2009-05-01T10:04:40.050Z</time>
</trkpt>
<trkpt lat="48.4352030" lon="13.0740040">
<ele>350.000000</ele>
<time>2009-05-01T10:04:58.090Z</time>
</trkpt>
<trkpt lat="48.4351690" lon="13.0742600">
<ele>350.000000</ele>
<time>2009-05-01T10:05:16.030Z</time>
</trkpt>
<trkpt lat="48.4351040" lon="13.0745610">
<ele>350.000000</ele>
<time>2009-05-01T10:05:37.030Z</time>
</trkpt>
<trkpt lat="48.4350300" lon="13.0747790">
<ele>350.000000</ele>
<time>2009-05-01T10:05:53.060Z</time>
</trkpt>
<trkpt lat="48.4348900" lon="13.0750290">
<ele>350.000000</ele>
<time>2009-05-01T10:06:15.030Z</time>
</trkpt>
<trkpt lat="48.4347090" lon="13.0753230">
<ele>351.000000</ele>
<time>2009-05-01T10:06:42.000Z</time>
</trkpt>
<trkpt lat="48.4345230" lon="13.0755860">
<ele>351.000000</ele>
<time>2009-05-01T10:07:07.060Z</time>
</trkpt>
<trkpt lat="48.4343760" lon="13.0757730">
<ele>351.000000</ele>
<time>2009-05-01T10:07:26.080Z</time>
</trkpt>
<trkpt lat="48.4342050" lon="13.0760430">
<ele>351.000000</ele>
<time>2009-05-01T10:07:51.060Z</time>
</trkpt>
<trkpt lat="48.4339810" lon="13.0765250">
<ele>349.000031</ele>
<time>2009-05-01T10:08:30.080Z</time>
</trkpt>
<trkpt lat="48.4338210" lon="13.0768960">
<ele>349.000031</ele>
<time>2009-05-01T10:09:00.010Z</time>
</trkpt>
<trkpt lat="48.4335520" lon="13.0774560">
<ele>348.000000</ele>
<time>2009-05-01T10:09:46.010Z</time>
</trkpt>
<trkpt lat="48.4333930" lon="13.0777540">
<ele>348.000000</ele>
<time>2009-05-01T10:10:11.050Z</time>
</trkpt>
<trkpt lat="48.4332050" lon="13.0781470">
<ele>348.000000</ele>
<time>2009-05-01T10:10:43.070Z</time>
</trkpt>
<trkpt lat="48.4330630" lon="13.0785360">
<ele>348.000000</ele>
<time>2009-05-01T10:11:13.020Z</time>
</trkpt>
<trkpt lat="48.4329210" lon="13.0789880">
<ele>348.000000</ele>
<time>2009-05-01T10:11:46.050Z</time>
</trkpt>
<trkpt lat="48.4327640" lon="13.0795280">
<ele>349.000031</ele>
<time>2009-05-01T10:12:25.070Z</time>
</trkpt>
<trkpt lat="48.4326150" lon="13.0799920">
<ele>350.000000</ele>
<time>2009-05-01T10:13:00.000Z</time>
</trkpt>
<trkpt lat="48.4324810" lon="13.0803140">
<ele>349.000031</ele>
<time>2009-05-01T10:13:25.020Z</time>
</trkpt>
<trkpt lat="48.4322920" lon="13.0806240">
<ele>348.000000</ele>
<time>2009-05-01T10:13:53.030Z</time>
</trkpt>
<trkpt lat="48.4321050" lon="13.0808870">
<ele>348.000000</ele>
<time>2009-05-01T10:14:18.090Z</time>
</trkpt>
<trkpt lat="48.4318510" lon="13.0812200">
<ele>348.000000</ele>
<time>2009-05-01T10:14:52.060Z</time>
</trkpt>
<trkpt lat="48.4316560" lon="13.0815160">
<ele>349.000031</ele>
<time>2009-05-01T10:15:20.030Z</time>
</trkpt>
<trkpt lat="48.4314710" lon="13.0818440">
<ele>349.000031</ele>
<time>2009-05-01T10:15:48.090Z</time>
</trkpt>
<trkpt lat="48.4313420" lon="13.0820920">
<ele>348.000000</ele>
<time>2009-05-01T10:16:09.090Z</time>
</trkpt>
<trkpt lat="48.4312870" lon="13.0822390">
<ele>348.000000</ele>
<time>2009-05-01T10:16:21.010Z</time>
</trkpt>
<trkpt lat="48.4312470" lon="13.0824110">
<ele>348.000000</ele>
<time>2009-05-01T10:16:33.020Z</time>
</trkpt>
<trkpt lat="48.4311860" lon="13.0827560">
<ele>348.000000</ele>
<time>2009-05-01T10:16:56.090Z</time>
</trkpt>
<trkpt lat="48.4311550" lon="13.0830430">
<ele>347.000000</ele>
<time>2009-05-01T10:17:16.020Z</time>
</trkpt>
<trkpt lat="48.4311700" lon="13.0833780">
<ele>347.000000</ele>
<time>2009-05-01T10:17:38.050Z</time>
</trkpt>
<trkpt lat="48.4312120" lon="13.0837770">
<ele>347.000000</ele>
<time>2009-05-01T10:18:05.030Z</time>
</trkpt>
<trkpt lat="48.4312800" lon="13.0842990">
<ele>348.000000</ele>
<time>2009-05-01T10:18:40.070Z</time>
</trkpt>
<trkpt lat="48.4313660" lon="13.0848890">
<ele>349.000031</ele>
<time>2009-05-01T10:19:20.090Z</time>
</trkpt>
<trkpt lat="48.4314390" lon="13.0855140">
<ele>349.000031</ele>
<time>2009-05-01T10:20:03.010Z</time>
</trkpt>
<trkpt lat="48.4314510" lon="13.0857870">
<ele>348.000000</ele>
<time>2009-05-01T10:20:21.030Z</time>
</trkpt>
<trkpt lat="48.4314540" lon="13.0861150">
<ele>348.000000</ele>
<time>2009-05-01T10:20:43.010Z</time>
</trkpt>
<trkpt lat="48.4314460" lon="13.0864130">
<ele>348.000000</ele>
<time>2009-05-01T10:21:02.090Z</time>
</trkpt>
<trkpt lat="48.4314190" lon="13.0866790">
<ele>347.000000</ele>
<time>2009-05-01T10:21:20.080Z</time>
</trkpt>
<trkpt lat="48.4313710" lon="13.0869820">
<ele>348.000000</ele>
<time>2009-05-01T10:21:41.050Z</time>
</trkpt>
<trkpt lat="48.4313270" lon="13.0871930">
<ele>348.000000</ele>
<time>2009-05-01T10:21:56.020Z</time>
</trkpt>
<trkpt lat="48.4312340" lon="13.0876440">
<ele>348.000000</ele>
<time>2009-05-01T10:22:27.060Z</time>
</trkpt>
<trkpt lat="48.4310960" lon="13.0882030">
<ele>348.000000</ele>
<time>2009-05-01T10:23:07.030Z</time>
</trkpt>
<trkpt lat="48.4310100" lon="13.0886740">
<ele>348.000000</ele>
<time>2009-05-01T10:23:39.070Z</time>
</trkpt>
<trkpt lat="48.4308940" lon="13.0892900">
<ele>347.000000</ele>
<time>2009-05-01T10:24:22.030Z</time>
</trkpt>
<trkpt lat="48.4307410" lon="13.0901410">
<ele>347.000000</ele>
<time>2009-05-01T10:25:21.000Z</time>
</trkpt>
<trkpt lat="48.4306320" lon="13.0908810">
<ele>346.000031</ele>
<time>2009-05-01T10:26:11.030Z</time>
</trkpt>
<trkpt lat="48.4305380" lon="13.0915890">
<ele>347.000000</ele>
<time>2009-05-01T10:26:59.040Z</time>
</trkpt>
<trkpt lat="48.4305120" lon="13.0918390">
<ele>347.000000</ele>
<time>2009-05-01T10:27:16.020Z</time>
</trkpt>
<trkpt lat="48.4305120" lon="13.0920450">
<ele>347.000000</ele>
<time>2009-05-01T10:27:29.090Z</time>
</trkpt>
<trkpt lat="48.4305370" lon="13.0922560">
<ele>347.000000</ele>
<time>2009-05-01T10:27:44.020Z</time>
</trkpt>
<trkpt lat="48.4305830" lon="13.0926290">
<ele>347.000000</ele>
<time>2009-05-01T10:28:09.040Z</time>
</trkpt>
<trkpt lat="48.4306260" lon="13.0929540">
<ele>347.000000</ele>
<time>2009-05-01T10:28:31.040Z</time>
</trkpt>
<trkpt lat="48.4306490" lon="13.0931470">
<ele>348.000000</ele>
<time>2009-05-01T10:28:44.040Z</time>
</trkpt>
<trkpt lat="48.4306530" lon="13.0932860">
<ele>348.000000</ele>
<time>2009-05-01T10:28:53.070Z</time>
</trkpt>
<trkpt lat="48.4306380" lon="13.0934350">
<ele>348.000000</ele>
<time>2009-05-01T10:29:03.070Z</time>
</trkpt>
<trkpt lat="48.4305950" lon="13.0936280">
<ele>347.000000</ele>
<time>2009-05-01T10:29:17.020Z</time>
</trkpt>
<trkpt lat="48.4304990" lon="13.0940010">
<ele>347.000000</ele>
<time>2009-05-01T10:29:43.080Z</time>
</trkpt>
<trkpt lat="48.4304210" lon="13.0942700">
<ele>347.000000</ele>
<time>2009-05-01T10:30:03.030Z</time>
</trkpt>
<trkpt lat="48.4303260" lon="13.0945150">
<ele>346.000031</ele>
<time>2009-05-01T10:30:22.020Z</time>
</trkpt>
<trkpt lat="48.4302830" lon="13.0946060">
<ele>347.000000</ele>
<time>2009-05-01T10:30:29.060Z</time>
</trkpt>
<trkpt lat="48.4305030" lon="13.0948020">
<ele>346.000031</ele>
<time>2009-05-01T10:30:55.030Z</time>
</trkpt>
<trkpt lat="48.4308630" lon="13.0950860">
<ele>346.000031</ele>
<time>2009-05-01T10:31:36.000Z</time>
</trkpt>
<trkpt lat="48.4310430" lon="13.0952260">
<ele>346.000031</ele>
<time>2009-05-01T10:31:56.030Z</time>
</trkpt>
<trkpt lat="48.4312330" lon="13.0952820">
<ele>347.000000</ele>
<time>2009-05-01T10:32:15.070Z</time>
</trkpt>
<trkpt lat="48.4315750" lon="13.0952850">
<ele>347.000000</ele>
<time>2009-05-01T10:32:49.090Z</time>
</trkpt>
<trkpt lat="48.4318010" lon="13.0952820">
<ele>347.000000</ele>
<time>2009-05-01T10:33:12.050Z</time>
</trkpt>
<trkpt lat="48.4319500" lon="13.0952790">
<ele>347.000000</ele>
<time>2009-05-01T10:33:27.050Z</time>
</trkpt>
<trkpt lat="48.4320000" lon="13.0952470">
<ele>347.000000</ele>
<time>2009-05-01T10:33:32.090Z</time>
</trkpt>
<trkpt lat="48.4320590" lon="13.0951910">
<ele>347.000000</ele>
<time>2009-05-01T10:33:39.090Z</time>
</trkpt>
<trkpt lat="48.4320910" lon="13.0951320">
<ele>347.000000</ele>
<time>2009-05-01T10:33:45.000Z</time>
</trkpt>
<trkpt lat="48.4321740" lon="13.0949310">
<ele>347.000000</ele>
<time>2009-05-01T10:34:00.080Z</time>
</trkpt>
<trkpt lat="48.4321850" lon="13.0947800">
<ele>347.000000</ele>
<time>2009-05-01T10:34:10.080Z</time>
</trkpt>
<trkpt lat="48.4320840" lon="13.0938790">
<ele>347.000000</ele>
<time>2009-05-01T10:35:11.060Z</time>
</trkpt>
<trkpt lat="48.4319270" lon="13.0918940">
<ele>347.000000</ele>
<time>2009-05-01T10:37:24.050Z</time>
</trkpt>
<trkpt lat="48.4318610" lon="13.0914040">
<ele>347.000000</ele>
<time>2009-05-01T10:37:57.080Z</time>
</trkpt>
<trkpt lat="48.4318970" lon="13.0911350">
<ele>347.000000</ele>
<time>2009-05-01T10:38:16.000Z</time>
</trkpt>
<trkpt lat="48.4318790" lon="13.0900010">
<ele>346.000031</ele>
<time>2009-05-01T10:39:31.040Z</time>
</trkpt>
<trkpt lat="48.4319130" lon="13.0889000">
<ele>347.000000</ele>
<time>2009-05-01T10:40:44.070Z</time>
</trkpt>
<trkpt lat="48.4319870" lon="13.0879730">
<ele>349.000031</ele>
<time>2009-05-01T10:41:46.080Z</time>
</trkpt>
<trkpt lat="48.4319980" lon="13.0876550">
<ele>349.000031</ele>
<time>2009-05-01T10:42:07.090Z</time>
</trkpt>
<trkpt lat="48.4319400" lon="13.0872510">
<ele>348.000000</ele>
<time>2009-05-01T10:42:35.040Z</time>
</trkpt>
<trkpt lat="48.4319660" lon="13.0870210">
<ele>348.000000</ele>
<time>2009-05-01T10:42:51.000Z</time>
</trkpt>
<trkpt lat="48.4320730" lon="13.0866160">
<ele>348.000000</ele>
<time>2009-05-01T10:43:20.000Z</time>
</trkpt>
<trkpt lat="48.4321050" lon="13.0862400">
<ele>348.000000</ele>
<time>2009-05-01T10:43:45.020Z</time>
</trkpt>
<trkpt lat="48.4321250" lon="13.0855750">
<ele>348.000000</ele>
<time>2009-05-01T10:44:29.050Z</time>
</trkpt>
<trkpt lat="48.4321460" lon="13.0851890">
<ele>349.000031</ele>
<time>2009-05-01T10:44:55.030Z</time>
</trkpt>
<trkpt lat="48.4322050" lon="13.0847920">
<ele>349.000031</ele>
<time>2009-05-01T10:45:22.030Z</time>
</trkpt>
<trkpt lat="48.4322940" lon="13.0844960">
<ele>349.000031</ele>
<time>2009-05-01T10:45:43.090Z</time>
</trkpt>
<trkpt lat="48.4324480" lon="13.0841530">
<ele>349.000031</ele>
<time>2009-05-01T10:46:11.040Z</time>
</trkpt>
<trkpt lat="48.4325320" lon="13.0840010">
<ele>349.000031</ele>
<time>2009-05-01T10:46:24.060Z</time>
</trkpt>
<trkpt lat="48.4326160" lon="13.0836870">
<ele>349.000031</ele>
<time>2009-05-01T10:46:47.010Z</time>
</trkpt>
<trkpt lat="48.4326920" lon="13.0833410">
<ele>349.000031</ele>
<time>2009-05-01T10:47:11.030Z</time>
</trkpt>
<trkpt lat="48.4327650" lon="13.0831020">
<ele>349.000031</ele>
<time>2009-05-01T10:47:28.080Z</time>
</trkpt>
<trkpt lat="48.4327740" lon="13.0829490">
<ele>349.000031</ele>
<time>2009-05-01T10:47:39.000Z</time>
</trkpt>
<trkpt lat="48.4327530" lon="13.0824690">
<ele>348.000000</ele>
<time>2009-05-01T10:48:11.000Z</time>
</trkpt>
<trkpt lat="48.4327400" lon="13.0820720">
<ele>347.000000</ele>
<time>2009-05-01T10:48:37.040Z</time>
</trkpt>
<trkpt lat="48.4327530" lon="13.0818600">
<ele>347.000000</ele>
<time>2009-05-01T10:48:51.050Z</time>
</trkpt>
<trkpt lat="48.4327960" lon="13.0816720">
<ele>347.000000</ele>
<time>2009-05-01T10:49:04.070Z</time>
</trkpt>
<trkpt lat="48.4329060" lon="13.0814100">
<ele>347.000000</ele>
<time>2009-05-01T10:49:25.040Z</time>
</trkpt>
<trkpt lat="48.4332190" lon="13.0809110">
<ele>347.000000</ele>
<time>2009-05-01T10:50:11.010Z</time>
</trkpt>
<trkpt lat="48.4336230" lon="13.0802030">
<ele>348.000000</ele>
<time>2009-05-01T10:51:13.020Z</time>
</trkpt>
<trkpt lat="48.4338740" lon="13.0797140">
<ele>349.000031</ele>
<time>2009-05-01T10:51:54.020Z</time>
</trkpt>
<trkpt lat="48.4340310" lon="13.0793210">
<ele>349.000031</ele>
<time>2009-05-01T10:52:24.070Z</time>
</trkpt>
<trkpt lat="48.4341910" lon="13.0788050">
<ele>350.000000</ele>
<time>2009-05-01T10:53:02.050Z</time>
</trkpt>
<trkpt lat="48.4343730" lon="13.0781020">
<ele>350.000000</ele>
<time>2009-05-01T10:53:52.070Z</time>
</trkpt>
<trkpt lat="48.4344860" lon="13.0777700">
<ele>350.000000</ele>
<time>2009-05-01T10:54:17.050Z</time>
</trkpt>
<trkpt lat="48.4346390" lon="13.0774270">
<ele>350.000000</ele>
<time>2009-05-01T10:54:45.000Z</time>
</trkpt>
<trkpt lat="48.4348570" lon="13.0770380">
<ele>351.000000</ele>
<time>2009-05-01T10:55:18.080Z</time>
</trkpt>
<trkpt lat="48.4350110" lon="13.0768230">
<ele>351.999969</ele>
<time>2009-05-01T10:55:39.080Z</time>
</trkpt>
<trkpt lat="48.4353960" lon="13.0764580">
<ele>351.999969</ele>
<time>2009-05-01T10:56:25.030Z</time>
</trkpt>
<trkpt lat="48.4356820" lon="13.0761230">
<ele>351.999969</ele>
<time>2009-05-01T10:57:01.060Z</time>
</trkpt>
<trkpt lat="48.4358530" lon="13.0758710">
<ele>351.999969</ele>
<time>2009-05-01T10:57:25.060Z</time>
</trkpt>
<trkpt lat="48.4360680" lon="13.0755010">
<ele>351.999969</ele>
<time>2009-05-01T10:57:58.030Z</time>
</trkpt>
<trkpt lat="48.4362410" lon="13.0752000">
<ele>351.999969</ele>
<time>2009-05-01T10:58:24.070Z</time>
</trkpt>
<trkpt lat="48.4363760" lon="13.0749160">
<ele>351.000000</ele>
<time>2009-05-01T10:58:48.000Z</time>
</trkpt>
<trkpt lat="48.4364860" lon="13.0744200">
<ele>351.000000</ele>
<time>2009-05-01T10:59:22.080Z</time>
</trkpt>
<trkpt lat="48.4365150" lon="13.0742000">
<ele>351.000000</ele>
<time>2009-05-01T10:59:37.070Z</time>
</trkpt>
<trkpt lat="48.4364080" lon="13.0734780">
<ele>350.000000</ele>
<time>2009-05-01T11:00:26.080Z</time>
</trkpt>
<trkpt lat="48.4362980" lon="13.0729150">
<ele>350.000000</ele>
<time>2009-05-01T11:01:05.080Z</time>
</trkpt>
</trkseg>
</trk>
</gpx>
